Time;durP1;ratioP1;P1;durP2;ratioP2;P2;SDS_P1;SDS_P2;PMS_P1;PMS_P2;Temp;Humidity;BMP_temperature;BMP_pressure;BME280_temperature;BME280_humidity;BME280_pressure;Samples;Min_cycle;Max_cycle;Signal;HPM_P1;HPM_P2
2021/01/20 00:01:14;;;;;;;80.30;50.17;;;0.20;2073.60;;;;;;4824337;29;20078;-79
2021/01/20 00:03:40;;;;;;;83.68;49.67;;;0.10;2048.00;;;;;;4822353;29;20082;-78
2021/01/20 00:06:06;;;;;;;78.65;50.03;;;0.20;2048.00;;;;;;4823434;29;20058;-78
2021/01/20 00:08:32;;;;;;;73.53;47.40;;;0.20;2048.00;;;;;;4822211;29;20511;-78
2021/01/20 00:10:58;;;;;;;74.55;47.80;;;0.20;2073.60;;;;;;4823976;29;20036;-77
2021/01/20 00:13:24;;;;;;;74.47;48.00;;;0.20;2048.00;;;;;;4822135;29;20042;-78
2021/01/20 00:15:50;;;;;;;73.05;45.55;;;0.20;2022.40;;;;;;4823325;29;20114;-78
2021/01/20 00:18:16;;;;;;;77.88;45.13;;;0.30;2048.00;;;;;;4822187;29;20038;-78
2021/01/20 00:20:42;;;;;;;69.63;45.15;;;0.30;2022.40;;;;;;4822135;29;20030;-79
2021/01/20 00:23:07;;;;;;;79.50;49.58;;;0.40;2022.40;;;;;;4822048;29;20034;-79
2021/01/20 00:25:33;;;;;;;78.57;48.50;;;0.30;2022.40;;;;;;4821684;29;20077;-79
2021/01/20 00:27:59;;;;;;;72.53;45.13;;;0.40;2022.40;;;;;;4822421;29;20026;-79
2021/01/20 00:30:25;;;;;;;75.00;47.47;;;0.40;1996.80;;;;;;4823283;29;20106;-79
2021/01/20 00:32:50;;;;;;;68.32;42.78;;;0.50;1996.80;;;;;;4823782;29;20584;-78
2021/01/20 00:35:22;;;;;;;67.90;43.55;;;0.50;1996.80;;;;;;4822026;29;20513;-78
2021/01/20 00:37:48;;;;;;;77.15;44.08;;;0.60;2022.40;;;;;;4823752;29;20105;-79
2021/01/20 00:40:15;;;;;;;70.82;42.70;;;0.70;1996.80;;;;;;4822247;29;20030;-78
2021/01/20 00:42:40;;;;;;;65.20;43.63;;;0.70;1971.20;;;;;;4823557;29;20841;-78
2021/01/20 00:45:06;;;;;;;69.85;41.10;;;0.70;1971.20;;;;;;4821765;29;20043;-79
2021/01/20 00:47:32;;;;;;;73.25;43.47;;;0.70;1971.20;;;;;;4822090;29;20037;-79
2021/01/20 00:49:58;;;;;;;65.57;42.45;;;0.70;1971.20;;;;;;4823764;29;20034;-79
2021/01/20 00:52:24;;;;;;;60.70;41.58;;;0.80;1971.20;;;;;;4821797;29;20035;-79
2021/01/20 00:54:49;;;;;;;68.65;43.67;;;0.70;1971.20;;;;;;4822074;29;20035;-79
2021/01/20 00:57:15;;;;;;;71.10;42.17;;;0.80;1971.20;;;;;;4831490;29;20030;-78
2021/01/20 00:59:41;;;;;;;68.60;40.85;;;0.80;1945.60;;;;;;4841923;29;20030;-77
2021/01/20 01:02:06;;;;;;;63.40;41.13;;;0.80;1971.20;;;;;;4840985;29;20112;-78
2021/01/20 01:04:32;;;;;;;67.97;42.85;;;0.80;1971.20;;;;;;4840789;29;20046;-79
2021/01/20 01:06:58;;;;;;;72.82;44.47;;;0.80;1971.20;;;;;;4839132;29;20084;-78
2021/01/20 01:09:23;;;;;;;63.40;41.17;;;0.80;1971.20;;;;;;4839970;29;20076;-79
2021/01/20 01:11:49;;;;;;;72.15;44.00;;;0.70;1996.80;;;;;;4840229;29;20049;-78
2021/01/20 01:14:15;;;;;;;68.72;40.92;;;0.70;1996.80;;;;;;4841054;29;20026;-78
2021/01/20 01:16:41;;;;;;;61.58;40.50;;;0.70;1971.20;;;;;;4840324;29;20422;-79
2021/01/20 01:19:07;;;;;;;63.05;40.58;;;0.70;1971.20;;;;;;4839840;29;20042;-79
2021/01/20 01:21:33;;;;;;;63.97;41.08;;;0.70;1971.20;;;;;;4841476;29;20487;-79
2021/01/20 01:23:59;;;;;;;60.08;37.95;;;0.70;1971.20;;;;;;4841198;29;20034;-78
2021/01/20 01:26:25;;;;;;;60.75;38.40;;;0.80;1971.20;;;;;;4840359;29;20089;-79
2021/01/20 01:28:50;;;;;;;63.60;37.72;;;0.80;1971.20;;;;;;4843327;29;20030;-79
2021/01/20 01:31:16;;;;;;;61.40;39.45;;;0.80;1971.20;;;;;;4843889;29;20090;-79
2021/01/20 01:33:42;;;;;;;58.50;38.00;;;0.80;1971.20;;;;;;4843428;29;20034;-79
2021/01/20 01:36:08;;;;;;;63.80;41.67;;;0.90;1971.20;;;;;;4843414;29;20041;-79
2021/01/20 01:38:33;;;;;;;60.55;39.72;;;0.90;1996.80;;;;;;4843366;29;20041;-79
2021/01/20 01:40:59;;;;;;;57.42;38.42;;;0.90;1971.20;;;;;;4843002;29;20125;-79
2021/01/20 01:43:25;;;;;;;56.50;38.25;;;0.90;1971.20;;;;;;4845447;29;20037;-79
2021/01/20 01:45:53;;;;;;;60.13;38.67;;;0.80;1971.20;;;;;;4843683;29;20042;-79
2021/01/20 01:48:19;;;;;;;55.38;36.42;;;0.90;1971.20;;;;;;4844066;29;20478;-79
2021/01/20 01:50:48;;;;;;;58.58;38.15;;;0.90;1971.20;;;;;;4844495;29;20116;-78
2021/01/20 01:53:15;;;;;;;64.88;36.42;;;25.60;1971.20;;;;;;4845271;29;20033;-79
2021/01/20 01:55:41;;;;;;;56.88;35.85;;;0.90;1971.20;;;;;;4843619;29;20098;-79
2021/01/20 01:58:07;;;;;;;57.08;36.53;;;25.60;1971.20;;;;;;4843671;29;20435;-79
2021/01/20 02:00:33;;;;;;;58.13;37.05;;;25.60;1971.20;;;;;;4843717;29;20026;-78
2021/01/20 02:03:00;;;;;;;58.00;36.53;;;25.60;1971.20;;;;;;4844556;29;20033;-78
2021/01/20 02:05:27;;;;;;;53.85;35.58;;;25.60;1971.20;;;;;;4843158;29;20053;-78
2021/01/20 02:07:53;;;;;;;57.28;38.72;;;25.60;1971.20;;;;;;4843986;29;20125;-78
2021/01/20 02:10:19;;;;;;;55.88;34.17;;;25.70;1971.20;;;;;;4844016;29;20036;-77
2021/01/20 02:13:09;;;;;;;60.05;37.33;;;25.70;1945.60;;;;;;4843492;29;20478;-78
2021/01/20 02:15:52;;;;;;;53.47;35.53;;;25.70;1971.20;;;;;;4843579;29;20034;-78
2021/01/20 02:18:22;;;;;;;63.78;36.08;;;25.70;1945.60;;;;;;4843500;29;20129;-78
2021/01/20 02:21:09;;;;;;;56.35;36.38;;;25.70;1945.60;;;;;;4843745;29;20029;-79
2021/01/20 02:23:40;;;;;;;57.72;34.25;;;25.70;1945.60;;;;;;4843544;29;20034;-79
2021/01/20 02:26:12;;;;;;;58.65;36.55;;;25.70;1945.60;;;;;;4843849;29;20076;-79
2021/01/20 02:28:52;;;;;;;56.22;36.28;;;25.80;1971.20;;;;;;4844507;29;20034;-79
2021/01/20 02:31:21;;;;;;;51.50;35.13;;;25.80;1945.60;;;;;;4843214;29;20048;-79
2021/01/20 02:33:50;;;;;;;57.72;34.35;;;25.80;1945.60;;;;;;4843814;29;20386;-78
2021/01/20 02:36:20;;;;;;;59.60;34.08;;;25.80;1945.60;;;;;;4844919;29;20073;-79
2021/01/20 02:38:48;;;;;;;51.38;32.60;;;25.90;1945.60;;;;;;4843001;29;20078;-79
2021/01/20 02:41:28;;;;;;;50.25;33.75;;;25.90;1945.60;;;;;;4843809;29;20059;-78
2021/01/20 02:43:58;;;;;;;55.47;33.97;;;25.90;1945.60;;;;;;4838948;29;20030;-78
2021/01/20 02:46:23;;;;;;;52.05;32.78;;;26.00;1945.60;;;;;;4843529;29;20379;-79
2021/01/20 02:48:50;;;;;;;52.67;32.33;;;26.00;1920.00;;;;;;4844022;29;20030;-78
2021/01/20 02:51:25;;;;;;;50.78;32.33;;;26.00;1945.60;;;;;;4843921;29;20171;-79
2021/01/20 02:53:54;;;;;;;48.92;32.60;;;26.10;1945.60;;;;;;4842841;29;20042;-79
2021/01/20 02:56:23;;;;;;;49.80;31.30;;;26.10;1945.60;;;;;;4843656;29;20033;-78
2021/01/20 02:58:50;;;;;;;48.83;31.35;;;26.10;1971.20;;;;;;4843606;29;20408;-78
2021/01/20 03:01:18;;;;;;;52.42;33.13;;;26.10;1945.60;;;;;;4843614;29;20076;-78
2021/01/20 03:03:47;;;;;;;44.47;30.98;;;26.10;1945.60;;;;;;4843978;29;20061;-78
2021/01/20 03:06:16;;;;;;;43.22;27.65;;;26.10;1945.60;;;;;;4843138;29;20046;-78
2021/01/20 03:08:42;;;;;;;50.15;29.88;;;26.20;1920.00;;;;;;4845825;29;20029;-78
2021/01/20 03:11:08;;;;;;;49.88;31.80;;;26.20;1920.00;;;;;;4844995;29;20069;-78
2021/01/20 03:13:39;;;;;;;49.17;30.08;;;26.20;1920.00;;;;;;4841615;29;20057;-79
2021/01/20 03:16:05;;;;;;;45.25;28.67;;;26.30;1920.00;;;;;;4841715;29;20084;-79
2021/01/20 03:18:31;;;;;;;49.15;29.45;;;26.30;1920.00;;;;;;4842663;29;20038;-79
2021/01/20 03:20:58;;;;;;;46.50;29.73;;;26.30;1920.00;;;;;;4841037;29;20053;-79
2021/01/20 03:23:23;;;;;;;41.03;29.08;;;26.30;1920.00;;;;;;4842856;29;20108;-79
2021/01/20 03:25:49;;;;;;;51.97;30.65;;;26.40;1945.60;;;;;;4843299;29;20430;-79
2021/01/20 03:28:15;;;;;;;55.15;30.75;;;26.40;1920.00;;;;;;4842697;29;20038;-79
2021/01/20 03:30:41;;;;;;;45.05;29.00;;;26.40;1920.00;;;;;;4842823;29;20029;-80
2021/01/20 03:33:06;;;;;;;46.30;29.90;;;26.40;1945.60;;;;;;4841308;29;20525;-80
2021/01/20 03:35:34;;;;;;;49.05;28.40;;;26.40;1945.60;;;;;;4842917;29;20041;-79
2021/01/20 03:38:01;;;;;;;52.20;31.45;;;26.40;1945.60;;;;;;4841269;29;20026;-79
2021/01/20 03:40:26;;;;;;;54.00;34.10;;;26.40;1945.60;;;;;;4841287;29;20033;-79
2021/01/20 03:42:52;;;;;;;49.80;30.60;;;26.40;1945.60;;;;;;4840791;29;20026;-79
2021/01/20 03:45:18;;;;;;;44.28;30.55;;;26.40;1945.60;;;;;;4843015;29;20033;-78
2021/01/20 03:47:44;;;;;;;50.17;29.58;;;26.40;1945.60;;;;;;4841578;29;20038;-78
2021/01/20 03:50:10;;;;;;;50.45;32.83;;;26.40;1945.60;;;;;;4840651;29;20033;-77
2021/01/20 03:52:35;;;;;;;45.75;30.25;;;26.40;1945.60;;;;;;4842685;29;20025;-79
2021/01/20 03:55:01;;;;;;;47.55;30.70;;;26.40;1945.60;;;;;;4840784;29;20087;-79
2021/01/20 03:57:27;;;;;;;41.35;29.77;;;26.50;1945.60;;;;;;4840588;29;20049;-78
2021/01/20 03:59:52;;;;;;;48.00;30.33;;;26.40;1945.60;;;;;;4841829;29;20038;-79
2021/01/20 04:02:18;;;;;;;42.83;29.95;;;26.50;1945.60;;;;;;4842253;29;20076;-78
2021/01/20 04:04:44;;;;;;;42.67;28.17;;;26.50;1945.60;;;;;;4840639;29;20054;-78
2021/01/20 04:07:10;;;;;;;49.35;31.30;;;26.50;1945.60;;;;;;4842759;29;20065;-78
2021/01/20 04:09:36;;;;;;;47.35;30.25;;;26.50;1945.60;;;;;;4840935;29;20030;-78
2021/01/20 04:12:02;;;;;;;42.67;28.63;;;26.50;1945.60;;;;;;4840979;29;20061;-78
2021/01/20 04:14:27;;;;;;;44.10;28.52;;;26.50;1945.60;;;;;;4841980;29;20034;-78
2021/01/20 04:16:53;;;;;;;49.35;30.67;;;51.20;1945.60;;;;;;4840452;29;20038;-79
2021/01/20 04:19:19;;;;;;;51.75;30.55;;;51.20;1971.20;;;;;;4842596;29;20439;-78
2021/01/20 04:21:44;;;;;;;43.80;28.60;;;51.20;1971.20;;;;;;4841805;29;20082;-79
2021/01/20 04:24:10;;;;;;;47.35;28.85;;;51.20;1971.20;;;;;;4840686;29;20073;-79
2021/01/20 04:26:37;;;;;;;46.70;30.98;;;51.20;1971.20;;;;;;4840191;29;20393;-79
2021/01/20 04:29:02;;;;;;;46.22;29.88;;;51.20;1971.20;;;;;;4840735;29;20496;-79
2021/01/20 04:31:28;;;;;;;45.08;29.25;;;51.20;1971.20;;;;;;4840381;29;20030;-79
2021/01/20 04:33:54;;;;;;;45.47;30.85;;;51.20;1971.20;;;;;;4842379;29;20394;-80
2021/01/20 04:36:19;;;;;;;46.88;28.77;;;51.20;1971.20;;;;;;4842019;29;20038;-79
2021/01/20 04:38:45;;;;;;;56.35;31.17;;;51.20;1971.20;;;;;;4842101;29;20030;-79
2021/01/20 04:41:11;;;;;;;45.47;30.25;;;51.20;1971.20;;;;;;4840457;29;20393;-79
2021/01/20 04:43:36;;;;;;;44.88;32.22;;;51.20;1971.20;;;;;;4841610;29;20038;-79
2021/01/20 04:46:02;;;;;;;43.17;30.17;;;51.20;1945.60;;;;;;4842092;29;20041;-79
2021/01/20 04:48:32;;;;;;;46.10;29.58;;;51.20;1971.20;;;;;;4841380;29;20109;-77
2021/01/20 04:51:02;;;;;;;46.75;30.45;;;51.20;1971.20;;;;;;4840603;29;20550;-80
2021/01/20 04:53:28;;;;;;;54.03;30.95;;;51.20;1971.20;;;;;;4841659;29;20030;-79
2021/01/20 04:55:55;;;;;;;41.90;29.77;;;51.30;1945.60;;;;;;4840592;29;20106;-78
2021/01/20 04:58:22;;;;;;;42.28;29.10;;;51.30;1945.60;;;;;;4840813;29;20121;-78
2021/01/20 05:00:47;;;;;;;42.28;28.40;;;51.30;1971.20;;;;;;4840304;29;20045;-79
2021/01/20 05:03:13;;;;;;;45.72;29.23;;;51.30;1971.20;;;;;;4839705;29;20034;-79
2021/01/20 05:05:39;;;;;;;43.42;30.30;;;51.30;1945.60;;;;;;4839912;29;20720;-79
2021/01/20 05:08:06;;;;;;;46.03;31.52;;;51.40;1971.20;;;;;;4842083;29;20042;-78
2021/01/20 05:10:32;;;;;;;42.95;28.95;;;51.40;1971.20;;;;;;4840008;29;20030;-78
2021/01/20 05:12:58;;;;;;;45.00;27.83;;;51.40;1971.20;;;;;;4841545;29;20034;-79
2021/01/20 05:15:36;;;;;;;44.72;30.58;;;51.50;1971.20;;;;;;4841373;29;20964;-79
2021/01/20 05:18:04;;;;;;;44.05;28.40;;;51.50;1971.20;;;;;;4840851;29;20042;-79
2021/01/20 05:20:37;;;;;;;41.83;27.48;;;51.50;1945.60;;;;;;4841093;29;20422;-79
2021/01/20 05:23:07;;;;;;;37.75;25.85;;;51.50;1945.60;;;;;;4841569;29;20038;-80
2021/01/20 05:25:37;;;;;;;43.85;26.38;;;51.60;1920.00;;;;;;4840616;29;20072;-78
2021/01/20 05:28:20;;;;;;;40.00;26.63;;;51.60;1945.60;;;;;;4841237;29;20099;-78
2021/01/20 05:30:57;;;;;;;40.95;25.13;;;51.70;1920.00;;;;;;4840746;29;20029;-78
2021/01/20 05:33:39;;;;;;;42.67;27.85;;;51.70;1945.60;;;;;;4840867;29;20386;-79
2021/01/20 05:36:11;;;;;;;38.22;24.63;;;51.80;1920.00;;;;;;4840154;29;20037;-79
2021/01/20 05:38:44;;;;;;;44.38;26.75;;;51.80;1920.00;;;;;;4840827;29;20041;-79
2021/01/20 05:41:20;;;;;;;42.33;25.48;;;51.80;1920.00;;;;;;4841061;29;20455;-79
2021/01/20 05:43:47;;;;;;;45.83;26.08;;;51.80;1920.00;;;;;;4841282;29;20049;-79
2021/01/20 05:46:13;;;;;;;39.10;26.52;;;51.90;1920.00;;;;;;4840676;29;20049;-79
2021/01/20 05:48:48;;;;;;;42.47;27.50;;;51.90;1920.00;;;;;;4839652;29;20026;-79
2021/01/20 05:51:15;;;;;;;45.15;28.92;;;51.90;1920.00;;;;;;4840962;29;20032;-80
2021/01/20 05:53:57;;;;;;;43.33;26.38;;;51.90;1920.00;;;;;;4840700;29;20030;-80
2021/01/20 05:56:30;;;;;;;41.53;26.65;;;51.90;1920.00;;;;;;4840549;29;20037;-80
2021/01/20 05:58:57;;;;;;;46.50;28.95;;;51.90;1920.00;;;;;;4841974;29;20098;-79
2021/01/20 06:01:23;;;;;;;40.05;25.08;;;51.90;1920.00;;;;;;4831406;29;20547;-79
2021/01/20 06:03:49;;;;;;;46.38;28.55;;;51.90;1920.00;;;;;;4823781;29;20042;-78
2021/01/20 06:06:16;;;;;;;41.28;26.40;;;51.90;1920.00;;;;;;4821677;29;20046;-78
2021/01/20 06:08:42;;;;;;;44.20;27.38;;;76.80;1920.00;;;;;;4823390;29;20039;-78
2021/01/20 06:11:08;;;;;;;41.30;26.67;;;51.90;1920.00;;;;;;4822364;29;20037;-78
2021/01/20 06:13:34;;;;;;;40.60;28.67;;;52.00;1894.40;;;;;;4823572;29;20082;-78
2021/01/20 06:16:13;;;;;;;46.55;31.95;;;51.90;1894.40;;;;;;4825374;29;20493;-78
2021/01/20 06:18:45;;;;;;;51.13;31.13;;;52.00;1920.00;;;;;;4825390;29;20034;-78
2021/01/20 06:21:14;;;;;;;44.47;29.27;;;52.00;1894.40;;;;;;4826650;29;20230;-78
2021/01/20 06:23:45;;;;;;;46.33;29.35;;;52.10;1894.40;;;;;;4826055;29;20054;-78
2021/01/20 06:26:13;;;;;;;45.80;30.45;;;76.80;1894.40;;;;;;4826225;29;20026;-79
2021/01/20 06:28:47;;;;;;;50.40;30.38;;;76.80;1894.40;;;;;;4826633;29;20475;-79
2021/01/20 06:31:14;;;;;;;46.65;29.90;;;76.80;1894.40;;;;;;4825138;29;20050;-79
2021/01/20 06:33:40;;;;;;;47.60;31.48;;;77.00;1894.40;;;;;;4825792;29;20057;-79
2021/01/20 06:36:06;;;;;;;43.95;29.35;;;76.90;1894.40;;;;;;4824713;29;20073;-79
2021/01/20 06:38:32;;;;;;;45.05;30.23;;;76.90;1894.40;;;;;;4827078;29;20030;-79
2021/01/20 06:41:30;;;;;;;46.47;30.23;;;76.90;1868.80;;;;;;4826837;29;20026;-79
2021/01/20 06:44:22;;;;;;;49.35;30.05;;;77.00;1894.40;;;;;;4825072;29;20072;-78
2021/01/20 06:46:57;;;;;;;53.03;33.38;;;77.00;1868.80;;;;;;4821613;29;20800;-80
2021/01/20 06:49:28;;;;;;;57.42;32.67;;;77.10;1868.80;;;;;;4826839;29;20030;-79
2021/01/20 06:52:09;;;;;;;49.65;29.33;;;77.10;1868.80;;;;;;4821137;29;20030;-80
2021/01/20 06:54:46;;;;;;;44.67;28.95;;;77.20;1868.80;;;;;;4826740;29;20022;-79
2021/01/20 06:57:30;;;;;;;43.58;27.52;;;77.20;1868.80;;;;;;4825305;29;20027;-79
2021/01/20 07:00:08;;;;;;;39.75;26.17;;;77.30;1868.80;;;;;;4826691;29;20090;-79
2021/01/20 07:02:59;;;;;;;41.75;25.88;;;77.30;1868.80;;;;;;4826225;29;20110;-79
2021/01/20 07:05:39;;;;;;;42.30;27.08;;;77.40;1868.80;;;;;;4833360;29;20114;-79
2021/01/20 07:08:09;;;;;;;39.95;26.23;;;77.40;1868.80;;;;;;4843511;29;20086;-79
2021/01/20 07:11:08;;;;;;;42.17;27.60;;;77.40;1843.20;;;;;;4842871;29;20038;-79
2021/01/20 07:13:38;;;;;;;33.03;23.92;;;77.50;1843.20;;;;;;4805666;29;20039;-79
2021/01/20 07:16:08;;;;;;;39.08;26.75;;;77.50;1843.20;;;;;;4791003;29;20459;-79
2021/01/20 07:18:38;;;;;;;44.50;28.88;;;77.60;1843.20;;;;;;4805624;29;20043;-79
2021/01/20 07:21:06;;;;;;;35.03;25.88;;;102.40;1843.20;;;;;;4805509;29;20034;-79
2021/01/20 07:23:33;;;;;;;39.33;25.95;;;102.40;1843.20;;;;;;4806288;29;20043;-79
2021/01/20 07:26:02;;;;;;;46.83;27.65;;;102.40;1817.60;;;;;;4805331;29;20125;-79
2021/01/20 07:28:28;;;;;;;41.42;25.90;;;102.40;1843.20;;;;;;4791660;29;20105;-79
2021/01/20 07:31:10;;;;;;;45.97;26.80;;;102.40;1843.20;;;;;;4790893;29;20088;-79
2021/01/20 07:33:37;;;;;;;42.40;26.92;;;102.40;1817.60;;;;;;4806229;29;20388;-80
2021/01/20 07:36:15;;;;;;;38.85;26.77;;;102.50;1817.60;;;;;;4790581;29;20035;-79
2021/01/20 07:38:41;;;;;;;48.25;28.80;;;102.60;1817.60;;;;;;4790721;29;20373;-80
2021/01/20 07:41:14;;;;;;;43.15;27.10;;;102.60;1817.60;;;;;;4790580;29;20034;-79
2021/01/20 07:43:40;;;;;;;41.25;26.55;;;102.70;1792.00;;;;;;4790519;29;20096;-79
2021/01/20 07:46:17;;;;;;;42.97;25.77;;;102.80;1792.00;;;;;;4790532;29;20125;-79
2021/01/20 07:48:43;;;;;;;35.63;25.70;;;102.80;1792.00;;;;;;4812751;29;20034;-80
2021/01/20 07:51:23;;;;;;;39.03;25.20;;;102.80;1792.00;;;;;;4825788;29;20510;-79
2021/01/20 07:54:06;;;;;;;35.38;23.75;;;102.90;1792.00;;;;;;4826885;29;20030;-79
2021/01/20 07:56:33;;;;;;;38.80;24.10;;;102.80;1817.60;;;;;;4825949;29;20058;-79
2021/01/20 07:59:19;;;;;;;41.00;24.95;;;102.70;1843.20;;;;;;4825008;29;20034;-78
2021/01/20 08:01:45;;;;;;;36.10;24.10;;;102.70;1843.20;;;;;;4823533;29;20030;-80
2021/01/20 08:04:21;;;;;;;36.55;25.08;;;102.70;1868.80;;;;;;4822626;29;20042;-80
2021/01/20 08:06:48;;;;;;;39.28;24.45;;;102.70;1868.80;;;;;;4822797;29;20046;-79
2021/01/20 08:09:13;;;;;;;38.60;25.67;;;102.60;1894.40;;;;;;4825078;29;20120;-79
2021/01/20 08:11:44;;;;;;;47.30;29.90;;;102.60;1894.40;;;;;;4824416;29;20027;-79
2021/01/20 08:14:11;;;;;;;38.10;25.27;;;102.60;1894.40;;;;;;4823943;29;20034;-80
2021/01/20 08:16:38;;;;;;;48.70;36.88;;;102.60;1920.00;;;;;;4822898;29;20064;-80
2021/01/20 08:19:06;;;;;;;39.03;27.02;;;102.50;1920.00;;;;;;4824362;29;20088;-79
2021/01/20 08:21:33;;;;;;;45.75;30.27;;;102.60;1920.00;;;;;;4824328;29;20034;-79
2021/01/20 08:24:07;;;;;;;47.17;30.05;;;102.60;1945.60;;;;;;4824548;29;20034;-79
2021/01/20 08:26:34;;;;;;;46.08;29.85;;;102.60;1945.60;;;;;;4823816;29;20037;-79
2021/01/20 08:29:05;;;;;;;53.08;35.40;;;102.70;1945.60;;;;;;4822634;29;20810;-78
2021/01/20 08:31:31;;;;;;;45.83;32.05;;;102.60;1971.20;;;;;;4822891;29;20058;-79
2021/01/20 08:34:15;;;;;;;50.72;33.28;;;102.60;1996.80;;;;;;4824380;29;20062;-80
2021/01/20 08:37:17;;;;;;;48.67;32.92;;;102.60;1996.80;;;;;;4822020;29;20042;-79
2021/01/20 08:39:52;;;;;;;39.45;29.05;;;102.70;1996.80;;;;;;4747249;30;20036;-80
2021/01/20 08:42:27;;;;;;;45.00;29.70;;;102.60;2022.40;;;;;;4732658;30;20125;-79
2021/01/20 08:45:11;;;;;;;48.35;29.15;;;102.60;1996.80;;;;;;4746606;30;20552;-79
2021/01/20 08:47:57;;;;;;;41.42;28.55;;;102.70;2022.40;;;;;;4732293;30;20049;-79
2021/01/20 08:50:40;;;;;;;44.75;33.35;;;102.70;2022.40;;;;;;4747171;30;20048;-78
2021/01/20 08:53:24;;;;;;;46.45;33.08;;;102.70;2022.40;;;;;;4732233;30;20096;-79
2021/01/20 08:55:52;;;;;;;45.95;32.28;;;102.70;2048.00;;;;;;4731740;30;20043;-79
2021/01/20 08:58:24;;;;;;;48.03;33.53;;;102.80;2022.40;;;;;;4733050;30;20040;-79
2021/01/20 09:00:58;;;;;;;51.13;33.80;;;102.90;2022.40;;;;;;4749721;30;20111;-79
2021/01/20 09:03:24;;;;;;;51.10;33.72;;;102.90;2048.00;;;;;;4736348;30;20068;-79
2021/01/20 09:05:52;;;;;;;50.20;33.25;;;103.00;2048.00;;;;;;4749628;30;20429;-79
2021/01/20 09:08:18;;;;;;;49.42;34.00;;;103.20;2048.00;;;;;;4749841;30;20394;-79
2021/01/20 09:10:45;;;;;;;57.03;34.88;;;103.20;2073.60;;;;;;4735845;30;20036;-80
2021/01/20 09:13:12;;;;;;;43.33;30.65;;;103.10;2048.00;;;;;;4735317;30;20029;-79
2021/01/20 09:15:37;;;;;;;42.53;27.88;;;103.20;2048.00;;;;;;4811364;29;20048;-80
2021/01/20 09:18:06;;;;;;;45.05;30.33;;;103.20;2048.00;;;;;;4841695;29;20034;-80
2021/01/20 09:20:35;;;;;;;51.25;34.92;;;103.30;2073.60;;;;;;4842329;29;20033;-79
2021/01/20 09:23:03;;;;;;;46.20;32.47;;;103.30;2048.00;;;;;;4841928;29;20030;-79
2021/01/20 09:25:29;;;;;;;53.90;34.83;;;128.00;2099.20;;;;;;4840560;29;20079;-80
2021/01/20 09:27:55;;;;;;;49.53;34.72;;;128.00;2099.20;;;;;;4841248;29;20057;-80
2021/01/20 09:30:22;;;;;;;228.82;141.70;;;128.00;2124.80;;;;;;4840812;29;20113;-79
2021/01/20 09:32:48;;;;;;;148.73;98.25;;;103.30;2099.20;;;;;;4842194;29;20033;-80
2021/01/20 09:35:15;;;;;;;74.30;50.83;;;103.30;2099.20;;;;;;4839978;29;20038;-79
2021/01/20 09:37:42;;;;;;;58.45;41.13;;;103.30;2099.20;;;;;;4840827;29;20030;-80
2021/01/20 09:40:10;;;;;;;55.55;38.47;;;103.30;2124.80;;;;;;4839544;29;20026;-79
2021/01/20 09:42:38;;;;;;;45.55;31.80;;;103.30;2099.20;;;;;;4840683;29;20034;-79
2021/01/20 09:45:05;;;;;;;47.88;34.17;;;103.30;2099.20;;;;;;4839728;29;20044;-79
2021/01/20 09:47:31;;;;;;;44.78;32.42;;;103.30;2099.20;;;;;;4841357;29;20041;-78
2021/01/20 09:49:57;;;;;;;48.83;34.33;;;103.30;2099.20;;;;;;4845509;29;20405;-80
2021/01/20 09:52:26;;;;;;;49.40;35.28;;;128.00;2124.80;;;;;;4843610;29;20114;-80
2021/01/20 09:54:55;;;;;;;45.90;32.78;;;128.10;2124.80;;;;;;4844275;29;20030;-79
2021/01/20 09:57:22;;;;;;;54.60;35.28;;;128.20;2099.20;;;;;;4844016;29;20156;-80
2021/01/20 09:59:48;;;;;;;54.10;38.35;;;128.40;2124.80;;;;;;4844019;29;20036;-80
2021/01/20 10:02:14;;;;;;;50.85;38.10;;;128.50;2099.20;;;;;;4844023;29;20037;-80
2021/01/20 10:04:41;;;;;;;40.17;30.10;;;128.50;2099.20;;;;;;4843478;29;20053;-80
2021/01/20 10:07:10;;;;;;;49.03;30.73;;;128.70;2048.00;;;;;;4843252;29;20504;-80
2021/01/20 10:09:38;;;;;;;44.50;30.40;;;128.80;2048.00;;;;;;4843747;29;20034;-79
2021/01/20 10:12:09;;;;;;;39.35;27.30;;;128.80;2022.40;;;;;;4839041;29;20769;-80
2021/01/20 10:14:35;;;;;;;43.22;26.77;;;153.60;1996.80;;;;;;4827151;29;20035;-80
2021/01/20 10:17:02;;;;;;;39.05;27.60;;;153.70;1996.80;;;;;;4826914;29;20061;-79
2021/01/20 10:19:27;;;;;;;41.15;27.85;;;153.60;2022.40;;;;;;4832255;29;20033;-79
2021/01/20 10:21:53;;;;;;;38.33;27.75;;;128.90;2048.00;;;;;;4842032;29;20030;-79
2021/01/20 10:24:19;;;;;;;38.92;26.33;;;153.70;2022.40;;;;;;4829861;29;20037;-79
2021/01/20 10:26:45;;;;;;;35.30;24.23;;;153.90;2022.40;;;;;;4837237;29;20033;-79
2021/01/20 10:29:11;;;;;;;33.42;23.45;;;153.90;2022.40;;;;;;4833884;29;20038;-79
2021/01/20 10:31:38;;;;;;;37.33;25.70;;;154.00;1971.20;;;;;;4833949;29;20482;-79
2021/01/20 10:34:06;;;;;;;35.22;25.17;;;154.10;1971.20;;;;;;4836701;29;20022;-80
2021/01/20 10:36:32;;;;;;;38.95;28.02;;;154.10;1971.20;;;;;;4831559;29;20043;-79
2021/01/20 10:38:58;;;;;;;39.42;26.95;;;154.10;1996.80;;;;;;4834368;29;20041;-80
2021/01/20 10:41:25;;;;;;;39.50;26.00;;;154.10;1996.80;;;;;;4830290;29;20046;-80
2021/01/20 10:43:52;;;;;;;38.85;26.77;;;154.30;1971.20;;;;;;4843425;29;20095;-79
2021/01/20 10:46:19;;;;;;;41.30;28.40;;;154.30;1971.20;;;;;;4826984;29;20045;-80
2021/01/20 10:48:45;;;;;;;45.40;29.58;;;154.50;1945.60;;;;;;4834344;29;20026;-80
2021/01/20 10:51:11;;;;;;;41.65;28.50;;;179.20;1971.20;;;;;;4841459;29;20026;-79
2021/01/20 10:53:40;;;;;;;42.30;28.67;;;179.30;1945.60;;;;;;4832556;29;20483;-80
2021/01/20 10:56:07;;;;;;;38.65;29.27;;;179.30;1945.60;;;;;;4836538;29;20402;-79
2021/01/20 10:58:33;;;;;;;44.58;29.48;;;179.40;1945.60;;;;;;4830302;29;20117;-79
2021/01/20 11:00:59;;;;;;;37.60;28.20;;;179.40;1945.60;;;;;;4832497;29;20042;-80
2021/01/20 11:03:25;;;;;;;41.22;30.25;;;179.40;1945.60;;;;;;4826383;29;20042;-80
2021/01/20 11:05:51;;;;;;;41.25;29.80;;;179.40;1945.60;;;;;;4836891;29;20071;-80
2021/01/20 11:08:17;;;;;;;42.83;29.33;;;179.20;1945.60;;;;;;4841625;29;20029;-79
2021/01/20 11:10:42;;;;;;;42.10;29.55;;;154.40;1945.60;;;;;;4844301;29;20474;-79
2021/01/20 11:13:08;;;;;;;47.83;31.48;;;154.20;1971.20;;;;;;4839781;29;20868;-79
2021/01/20 11:15:35;;;;;;;62.70;39.85;;;154.10;1971.20;;;;;;4835791;29;20046;-79
2021/01/20 11:18:02;;;;;;;41.22;30.45;;;153.90;2022.40;;;;;;4842557;29;20034;-79
2021/01/20 11:20:28;;;;;;;43.05;31.52;;;153.70;2022.40;;;;;;4844196;29;20410;-80
2021/01/20 11:22:54;;;;;;;48.58;34.95;;;153.70;2048.00;;;;;;4845150;29;20038;-81
2021/01/20 11:25:20;;;;;;;44.65;30.83;;;153.60;2073.60;;;;;;4845401;29;20402;-80
2021/01/20 11:27:45;;;;;;;46.60;31.20;;;153.80;2048.00;;;;;;4845749;29;20045;-80
2021/01/20 11:30:12;;;;;;;58.20;38.22;;;154.00;2073.60;;;;;;4847466;29;20026;-80
2021/01/20 11:32:37;;;;;;;49.53;33.28;;;154.00;2073.60;;;;;;4845182;29;20030;-81
2021/01/20 11:35:05;;;;;;;54.10;32.10;;;154.20;2048.00;;;;;;4844727;29;20492;-80
2021/01/20 11:37:31;;;;;;;45.63;29.77;;;154.30;2048.00;;;;;;4846149;29;20026;-80
2021/01/20 11:40:01;;;;;;;47.28;31.67;;;154.50;2022.40;;;;;;4843711;29;20038;-79
2021/01/20 11:42:26;;;;;;;51.28;31.55;;;179.20;2022.40;;;;;;4845626;29;20086;-80
2021/01/20 11:44:52;;;;;;;42.28;30.90;;;179.30;2022.40;;;;;;4844423;29;20034;-81
2021/01/20 11:47:18;;;;;;;47.53;31.35;;;179.60;1996.80;;;;;;4844154;29;20038;-81
2021/01/20 11:49:43;;;;;;;45.03;32.25;;;179.80;1971.20;;;;;;4844442;29;20196;-79
2021/01/20 11:52:09;;;;;;;44.70;32.03;;;180.00;1945.60;;;;;;4843078;29;20478;-79
2021/01/20 11:54:35;;;;;;;41.80;30.40;;;180.10;1920.00;;;;;;4843676;29;20042;-79
2021/01/20 11:57:00;;;;;;;41.30;30.42;;;180.00;1920.00;;;;;;4842646;29;20088;-80
2021/01/20 11:59:26;;;;;;;45.28;31.20;;;180.00;1920.00;;;;;;4845356;29;20106;-80
2021/01/20 12:01:52;;;;;;;44.08;29.63;;;179.90;1920.00;;;;;;4844215;29;20383;-80
2021/01/20 12:04:17;;;;;;;42.78;29.50;;;179.90;1920.00;;;;;;4846023;29;20057;-80
2021/01/20 12:06:43;;;;;;;36.13;27.08;;;179.80;1920.00;;;;;;4845230;29;20423;-80
2021/01/20 12:09:09;;;;;;;48.03;30.48;;;179.70;1920.00;;;;;;4844899;29;20779;-80
2021/01/20 12:11:35;;;;;;;34.15;25.10;;;179.70;1945.60;;;;;;4844416;29;20030;-80
2021/01/20 12:14:00;;;;;;;32.83;24.00;;;179.80;1894.40;;;;;;4844512;29;20034;-79